createdAt,value
2023-04-01T00:01:51.800Z,9.48
2023-04-01T00:04:19.301Z,9.48
2023-04-01T00:06:48.610Z,9.49
2023-04-01T00:09:16.196Z,9.45
2023-04-01T00:11:43.248Z,9.53
2023-04-01T00:14:11.611Z,9.52
2023-04-01T00:16:38.706Z,9.44
2023-04-01T00:19:06.217Z,9.41
2023-04-01T00:21:33.360Z,9.38
2023-04-01T00:24:01.390Z,9.29
2023-04-01T00:26:28.470Z,9.20
2023-04-01T00:28:56.356Z,9.14
2023-04-01T00:31:23.384Z,9.19
2023-04-01T00:33:50.757Z,9.15
2023-04-01T00:36:20.935Z,9.15
2023-04-01T00:38:48.617Z,9.04
2023-04-01T00:41:17.030Z,8.97
2023-04-01T00:43:47.127Z,8.95
2023-04-01T00:46:14.199Z,8.71
2023-04-01T00:48:46.704Z,8.60
2023-04-01T00:51:29.468Z,8.60
2023-04-01T00:53:58.393Z,8.53
2023-04-01T00:56:29.136Z,8.43
2023-04-01T00:59:00.599Z,8.35
2023-04-01T01:01:29.477Z,8.35
2023-04-01T01:03:56.961Z,8.27
2023-04-01T01:06:40.856Z,8.19
2023-04-01T01:09:11.215Z,8.21
2023-04-01T01:11:44.009Z,8.19
2023-04-01T01:14:38.176Z,8.21
2023-04-01T01:17:25.878Z,8.16
2023-04-01T01:20:12.827Z,8.13
2023-04-01T01:23:21.464Z,8.21
2023-04-01T01:25:57.152Z,8.11
2023-04-01T01:28:27.524Z,8.11
2023-04-01T01:31:22.229Z,8.03
2023-04-01T01:34:04.243Z,8.05
2023-04-01T01:36:36.801Z,8.05
2023-04-01T01:39:06.299Z,8.03
2023-04-01T01:41:34.850Z,7.97
2023-04-01T01:44:04.240Z,8.03
2023-04-01T01:46:32.259Z,7.99
2023-04-01T01:49:00.910Z,8.04
2023-04-01T01:51:29.241Z,8.19
2023-04-01T01:53:56.344Z,8.15
2023-04-01T01:56:26.541Z,8.17
2023-04-01T01:59:02.120Z,8.18
2023-04-01T02:01:31.558Z,8.38
2023-04-01T02:03:59.141Z,8.42
2023-04-01T02:06:29.034Z,8.54
2023-04-01T02:09:00.920Z,8.56
2023-04-01T02:11:31.898Z,8.60
2023-04-01T02:14:21.131Z,8.70
2023-04-01T02:16:56.646Z,8.70
2023-04-01T02:19:29.220Z,8.73
2023-04-01T02:21:59.377Z,8.69
2023-04-01T02:24:28.241Z,8.68
2023-04-01T02:26:55.533Z,8.79
2023-04-01T02:29:25.635Z,8.86
2023-04-01T02:31:54.461Z,8.89
2023-04-01T02:34:23.678Z,8.95
2023-04-01T02:36:51.842Z,8.91
2023-04-01T02:39:19.303Z,8.93
2023-04-01T02:41:46.986Z,8.92
2023-04-01T02:44:15.615Z,8.92
2023-04-01T02:46:43.366Z,8.90
2023-04-01T02:49:10.508Z,8.81
2023-04-01T02:51:38.109Z,8.86
2023-04-01T02:54:05.409Z,8.88
2023-04-01T02:56:32.640Z,8.88
2023-04-01T02:58:59.860Z,8.94
2023-04-01T03:01:27.493Z,9.12
2023-04-01T03:03:54.414Z,9.17
2023-04-01T03:06:21.875Z,9.18
2023-04-01T03:08:49.038Z,9.19
2023-04-01T03:11:16.508Z,9.25
2023-04-01T03:13:43.685Z,9.32
2023-04-01T03:16:11.585Z,9.35
2023-04-01T03:18:38.542Z,9.34
2023-04-01T03:21:19.049Z,9.34
2023-04-01T03:23:46.405Z,9.37
2023-04-01T03:26:14.488Z,9.32
2023-04-01T03:28:41.456Z,9.28
2023-04-01T03:31:09.154Z,9.29
2023-04-01T03:33:36.112Z,9.29
2023-04-01T03:36:07.533Z,9.30
2023-04-01T03:38:36.047Z,9.25
2023-04-01T03:41:03.626Z,9.28
2023-04-01T03:43:30.647Z,9.39
2023-04-01T03:46:01.095Z,9.30
2023-04-01T03:48:28.193Z,9.33
2023-04-01T03:50:55.532Z,9.16
2023-04-01T03:53:23.169Z,9.09
2023-04-01T03:55:52.340Z,8.90
2023-04-01T03:58:19.498Z,8.85
2023-04-01T04:00:47.984Z,8.75
2023-04-01T04:03:15.343Z,8.76
2023-04-01T04:05:49.661Z,8.71
2023-04-01T04:08:17.576Z,8.69
2023-04-01T04:10:45.044Z,8.53
2023-04-01T04:13:12.172Z,8.50
2023-04-01T04:15:39.789Z,8.47
2023-04-01T04:18:06.771Z,8.30
2023-04-01T04:20:34.475Z,8.28
2023-04-01T04:23:01.590Z,8.17
2023-04-01T04:25:28.894Z,8.15
2023-04-01T04:27:55.929Z,8.18
2023-04-01T04:30:23.195Z,8.34
2023-04-01T04:32:53.332Z,8.41
2023-04-01T04:35:20.626Z,8.56
2023-04-01T04:37:47.728Z,8.61
2023-04-01T04:40:15.073Z,8.78
2023-04-01T04:42:41.973Z,8.89
2023-04-01T04:45:09.635Z,9.15
2023-04-01T04:47:36.598Z,9.05
2023-04-01T04:50:04.362Z,9.11
2023-04-01T04:52:31.508Z,9.24
2023-04-01T04:54:58.715Z,9.30
2023-04-01T04:57:26.281Z,9.29
2023-04-01T04:59:53.667Z,9.38
2023-04-01T05:02:20.819Z,9.34
2023-04-01T05:04:48.422Z,9.39
2023-04-01T05:07:15.660Z,9.52
2023-04-01T05:09:42.927Z,9.59
2023-04-01T05:12:09.987Z,9.74
2023-04-01T05:14:37.600Z,9.92
2023-04-01T05:17:04.708Z,9.96
2023-04-01T05:19:32.523Z,9.89
2023-04-01T05:21:59.569Z,9.82
2023-04-01T05:24:26.818Z,9.74
2023-04-01T05:26:55.263Z,9.80
2023-04-01T05:29:25.279Z,9.73
2023-04-01T05:31:52.502Z,9.77
2023-04-01T05:34:19.987Z,9.54
2023-04-01T05:36:47.004Z,9.44
2023-04-01T05:39:14.216Z,9.55
2023-04-01T05:41:41.631Z,9.90
2023-04-01T05:44:13.234Z,10.04
2023-04-01T05:46:40.185Z,10.10
2023-04-01T05:49:07.464Z,10.10
2023-04-01T05:51:34.621Z,10.12
2023-04-01T05:54:01.902Z,10.24
2023-04-01T05:56:28.859Z,10.35
2023-04-01T05:58:56.241Z,10.51
2023-04-01T06:01:23.365Z,10.74
2023-04-01T06:03:51.134Z,11.13
2023-04-01T06:06:26.437Z,11.16
2023-04-01T06:08:54.644Z,11.27
2023-04-01T06:11:38.139Z,11.29
2023-04-01T06:14:08.635Z,11.51
2023-04-01T06:16:55.771Z,11.73
2023-04-01T06:19:32.230Z,11.85
2023-04-01T06:22:17.690Z,12.13
2023-04-01T06:25:30.273Z,11.96
2023-04-01T06:28:20.066Z,12.02
2023-04-01T06:30:59.467Z,11.86
2023-04-01T06:33:51.432Z,11.99
2023-04-01T06:36:37.831Z,12.10
2023-04-01T06:39:11.268Z,12.30
2023-04-01T06:41:41.555Z,12.11
2023-04-01T06:44:24.372Z,12.07
2023-04-01T06:46:54.281Z,12.02
2023-04-01T06:49:46.086Z,11.93
2023-04-01T06:52:31.992Z,11.75
2023-04-01T06:55:22.801Z,11.55
2023-04-01T06:57:54.296Z,11.66
2023-04-01T07:00:27.597Z,11.77
2023-04-01T07:03:13.529Z,11.88
2023-04-01T07:05:40.895Z,12.11
2023-04-01T07:08:13.172Z,12.18
2023-04-01T07:10:49.486Z,12.15
2023-04-01T07:13:27.701Z,12.15
2023-04-01T07:16:28.468Z,12.04
2023-04-01T07:19:03.407Z,12.18
2023-04-01T07:21:36.860Z,12.43
2023-04-01T07:24:13.301Z,12.33
2023-04-01T07:26:41.006Z,12.44
2023-04-01T07:29:14.316Z,12.50
2023-04-01T07:32:05.914Z,12.34
2023-04-01T07:34:59.095Z,12.42
2023-04-01T07:37:32.555Z,12.75
2023-04-01T07:40:08.752Z,12.95
2023-04-01T07:42:46.148Z,12.89
2023-04-01T07:45:37.149Z,13.02
2023-04-01T07:48:13.181Z,13.13
2023-04-01T07:51:14.943Z,13.40
2023-04-01T07:54:09.079Z,13.22
2023-04-01T07:56:39.770Z,13.70
2023-04-01T07:59:31.078Z,13.74
2023-04-01T08:02:13.794Z,14.01
2023-04-01T08:04:47.062Z,14.18
2023-04-01T08:07:25.537Z,14.53
2023-04-01T08:09:55.589Z,14.22
2023-04-01T08:12:47.576Z,14.31
2023-04-01T08:15:28.613Z,14.68
2023-04-01T08:17:56.259Z,15.11
2023-04-01T08:20:29.427Z,15.48
2023-04-01T08:23:15.890Z,15.12
2023-04-01T08:25:58.089Z,14.24
2023-04-01T08:28:51.122Z,13.82
2023-04-01T08:31:32.611Z,13.30
2023-04-01T08:34:01.510Z,13.30
2023-04-01T08:36:40.882Z,12.35
2023-04-01T08:39:13.656Z,12.13
2023-04-01T08:41:46.774Z,12.21
2023-04-01T08:44:14.175Z,12.42
2023-04-01T08:47:11.945Z,12.11
2023-04-01T08:49:51.215Z,12.00
2023-04-01T08:52:37.188Z,12.09
2023-04-01T08:55:26.656Z,12.24
2023-04-01T08:58:07.511Z,11.99
2023-04-01T09:00:54.851Z,12.17
2023-04-01T09:03:25.093Z,11.99
2023-04-01T09:05:55.619Z,11.83
2023-04-01T09:08:55.022Z,11.94
2023-04-01T09:11:44.418Z,12.39
2023-04-01T09:14:46.483Z,12.50
2023-04-01T09:17:36.012Z,12.67
2023-04-01T09:20:21.945Z,12.80
2023-04-01T09:22:52.905Z,13.41
2023-04-01T09:25:47.086Z,14.05
2023-04-01T09:28:20.599Z,14.18
2023-04-01T09:31:06.956Z,14.00
2023-04-01T09:34:02.012Z,14.36
2023-04-01T09:36:54.749Z,14.10
2023-04-01T09:39:41.385Z,14.09
2023-04-01T09:42:14.773Z,13.39
2023-04-01T09:44:49.997Z,13.62
2023-04-01T09:47:49.888Z,13.56
2023-04-01T09:50:44.366Z,13.57
2023-04-01T09:53:34.263Z,14.24
2023-04-01T09:56:22.906Z,14.34
2023-04-01T09:59:37.039Z,14.58
2023-04-01T10:02:23.006Z,14.66
2023-04-01T10:05:12.101Z,15.09
2023-04-01T10:07:42.622Z,14.90
2023-04-01T10:10:28.824Z,15.04
2023-04-01T10:13:50.126Z,15.29
2023-04-01T10:16:35.733Z,14.94
2023-04-01T10:19:13.237Z,14.66
2023-04-01T10:22:12.844Z,13.73
2023-04-01T10:25:11.810Z,13.33
2023-04-01T10:28:00.121Z,13.36
2023-04-01T10:30:43.444Z,13.46
2023-04-01T10:33:38.695Z,13.95
2023-04-01T10:36:27.222Z,14.06
2023-04-01T10:39:22.866Z,13.42
2023-04-01T10:42:12.379Z,13.14
2023-04-01T10:45:04.029Z,13.12
2023-04-01T10:47:37.525Z,12.38
2023-04-01T10:50:18.676Z,12.49
2023-04-01T10:53:09.873Z,12.82
2023-04-01T10:56:01.631Z,13.38
2023-04-01T10:59:08.117Z,13.91
2023-04-01T11:02:12.788Z,13.63
2023-04-01T11:04:58.213Z,13.71
2023-04-01T11:07:31.692Z,14.03
2023-04-01T11:10:11.818Z,14.62
2023-04-01T11:12:44.330Z,14.90
2023-04-01T11:15:26.097Z,15.40
2023-04-01T11:18:01.350Z,14.85
2023-04-01T11:20:55.740Z,15.02
2023-04-01T11:24:04.512Z,14.26
2023-04-01T11:26:34.323Z,14.23
2023-04-01T11:29:23.281Z,14.29
2023-04-01T11:32:06.260Z,14.20
2023-04-01T11:34:39.454Z,13.91
2023-04-01T11:37:13.254Z,13.32
2023-04-01T11:39:57.117Z,12.93
2023-04-01T11:42:32.703Z,12.88
2023-04-01T11:45:23.290Z,12.94
2023-04-01T11:47:57.905Z,13.46
2023-04-01T11:50:34.034Z,14.41
2023-04-01T11:53:32.633Z,14.31
2023-04-01T11:56:30.962Z,14.48
2023-04-01T11:59:04.134Z,13.90
2023-04-01T12:01:58.926Z,14.04
2023-04-01T12:04:45.210Z,14.38
2023-04-01T12:07:31.519Z,14.82
2023-04-01T12:10:17.563Z,15.06
2023-04-01T12:13:03.739Z,14.86
2023-04-01T12:15:44.830Z,14.03
2023-04-01T12:18:37.499Z,13.54
2023-04-01T12:21:26.178Z,13.73
2023-04-01T12:23:53.336Z,13.83
2023-04-01T12:26:59.591Z,13.85
2023-04-01T12:29:45.085Z,13.70
2023-04-01T12:32:21.713Z,13.77
2023-04-01T12:35:03.524Z,13.87
2023-04-01T12:37:46.504Z,14.28
2023-04-01T12:40:47.376Z,13.44
2023-04-01T12:43:37.013Z,13.54
2023-04-01T12:46:15.620Z,13.77
2023-04-01T12:49:21.389Z,14.33
2023-04-01T12:52:11.907Z,14.76
2023-04-01T12:55:27.298Z,14.64
2023-04-01T12:58:25.457Z,14.54
2023-04-01T13:01:29.981Z,14.36
2023-04-01T13:04:31.348Z,14.23
2023-04-01T13:07:24.629Z,14.20
2023-04-01T13:10:02.894Z,13.88
2023-04-01T13:12:48.543Z,13.36
2023-04-01T13:15:24.460Z,13.34
2023-04-01T13:18:23.318Z,13.43
2023-04-01T13:21:07.170Z,13.31
2023-04-01T13:24:10.410Z,13.27
2023-04-01T13:27:14.982Z,13.38
2023-04-01T13:30:10.505Z,13.47
2023-04-01T13:33:02.939Z,13.40
2023-04-01T13:35:49.147Z,13.31
2023-04-01T13:38:29.541Z,13.15
2023-04-01T13:41:35.488Z,12.93
2023-04-01T13:44:14.161Z,12.68
2023-04-01T13:46:59.582Z,12.46
2023-04-01T13:49:48.269Z,12.06
2023-04-01T13:52:25.685Z,11.70
2023-04-01T13:55:01.059Z,11.87
2023-04-01T13:57:54.089Z,12.05
2023-04-01T14:00:47.623Z,12.15
2023-04-01T14:03:24.326Z,12.58
2023-04-01T14:06:00.680Z,12.67
2023-04-01T14:08:45.190Z,13.09
2023-04-01T14:11:26.304Z,13.70
2023-04-01T14:14:30.252Z,14.02
2023-04-01T14:17:04.982Z,13.90
2023-04-01T14:20:03.656Z,14.00
2023-04-01T14:22:36.871Z,13.77
2023-04-01T14:25:37.428Z,13.68
2023-04-01T14:28:12.035Z,14.05
2023-04-01T14:30:59.745Z,14.21
2023-04-01T14:34:00.790Z,14.33
2023-04-01T14:36:39.454Z,14.17
2023-04-01T14:39:35.439Z,14.18
2023-04-01T14:42:27.634Z,14.26
2023-04-01T14:45:20.093Z,14.54
2023-04-01T14:48:19.281Z,14.49
2023-04-01T14:50:49.072Z,14.45
2023-04-01T14:53:28.930Z,14.45
2023-04-01T14:55:58.910Z,14.39
2023-04-01T14:58:42.101Z,14.46
2023-04-01T15:01:21.975Z,14.03
2023-04-01T15:03:58.091Z,14.00
2023-04-01T15:06:58.000Z,14.14
2023-04-01T15:10:10.008Z,14.29
2023-04-01T15:12:47.944Z,14.58
2023-04-01T15:15:40.254Z,14.74
2023-04-01T15:18:15.430Z,14.43
2023-04-01T15:21:07.836Z,14.39
2023-04-01T15:23:46.538Z,14.31
2023-04-01T15:26:48.131Z,14.17
2023-04-01T15:29:33.307Z,14.05
2023-04-01T15:32:01.975Z,13.98
2023-04-01T15:34:46.738Z,13.50
2023-04-01T15:37:33.134Z,13.28
2023-04-01T15:40:21.926Z,13.23
2023-04-01T15:43:02.922Z,12.81
2023-04-01T15:45:51.825Z,12.34
2023-04-01T15:48:31.187Z,12.18
2023-04-01T15:51:19.130Z,12.02
2023-04-01T15:53:55.220Z,11.93
2023-04-01T15:56:43.751Z,12.03
2023-04-01T15:59:31.797Z,11.49
2023-04-01T16:02:08.913Z,11.30
2023-04-01T16:04:53.912Z,11.39
2023-04-01T16:07:45.408Z,11.30
2023-04-01T16:10:39.759Z,10.85
2023-04-01T16:13:48.968Z,10.41
2023-04-01T16:16:19.404Z,10.29
2023-04-01T16:18:50.000Z,9.84
2023-04-01T16:21:45.368Z,9.76
2023-04-01T16:24:52.821Z,9.76
2023-04-01T16:27:23.272Z,9.87
2023-04-01T16:30:12.413Z,9.70
2023-04-01T16:32:47.970Z,9.16
2023-04-01T16:35:37.471Z,8.96
2023-04-01T16:38:06.848Z,8.81
2023-04-01T16:41:04.652Z,8.67
2023-04-01T16:43:40.797Z,8.63
2023-04-01T16:46:23.341Z,8.63
2023-04-01T16:49:01.230Z,8.63
2023-04-01T16:51:58.873Z,8.68
2023-04-01T16:54:45.501Z,8.68
2023-04-01T16:57:20.826Z,8.77
2023-04-01T17:00:15.638Z,8.87
2023-04-01T17:03:18.886Z,8.89
2023-04-01T17:06:06.720Z,9.07
2023-04-01T17:08:48.741Z,9.21
2023-04-01T17:11:29.996Z,9.17
2023-04-01T17:14:15.641Z,9.19
2023-04-01T17:17:20.946Z,9.19
2023-04-01T17:19:59.858Z,9.22
2023-04-01T17:22:39.418Z,9.23
2023-04-01T17:25:45.474Z,9.22
2023-04-01T17:28:31.061Z,9.17
2023-04-01T17:31:04.852Z,9.16
2023-04-01T17:33:59.561Z,9.22
2023-04-01T17:36:45.753Z,9.28
2023-04-01T17:39:40.673Z,9.26
2023-04-01T17:42:24.209Z,9.27
2023-04-01T17:44:57.987Z,9.29
2023-04-01T17:47:56.383Z,9.42
2023-04-01T17:51:01.831Z,9.36
2023-04-01T17:53:57.808Z,9.41
2023-04-01T17:56:37.126Z,9.56
2023-04-01T17:59:17.068Z,9.49
2023-04-01T18:02:02.835Z,9.52
2023-04-01T18:04:38.161Z,9.49
2023-04-01T18:07:17.892Z,9.44
2023-04-01T18:10:25.492Z,9.51
2023-04-01T18:13:14.779Z,9.45
2023-04-01T18:16:13.367Z,9.53
2023-04-01T18:19:03.884Z,9.42
2023-04-01T18:21:54.003Z,9.35
2023-04-01T18:24:34.928Z,9.39
2023-04-01T18:27:06.894Z,9.29
2023-04-01T18:30:00.451Z,9.27
2023-04-01T18:33:09.498Z,9.32
2023-04-01T18:35:50.538Z,9.37
2023-04-01T18:38:30.978Z,9.41
2023-04-01T18:41:17.402Z,9.42
2023-04-01T18:44:16.007Z,9.53
2023-04-01T18:47:15.270Z,9.60
2023-04-01T18:50:01.385Z,9.67
2023-04-01T18:52:41.986Z,9.66
2023-04-01T18:55:17.892Z,9.55
2023-04-01T18:57:57.722Z,9.46
2023-04-01T19:00:35.371Z,9.41
2023-04-01T19:03:33.954Z,9.41
2023-04-01T19:06:03.311Z,9.44
2023-04-01T19:08:37.170Z,9.48
2023-04-01T19:11:11.901Z,9.48
2023-04-01T19:14:02.831Z,9.47
2023-04-01T19:16:33.152Z,9.64
2023-04-01T19:19:14.404Z,9.61
2023-04-01T19:22:19.894Z,9.69
2023-04-01T19:25:25.708Z,9.60
2023-04-01T19:28:23.948Z,9.53
2023-04-01T19:31:01.080Z,9.51
2023-04-01T19:34:22.134Z,9.54
2023-04-01T19:36:58.335Z,9.57
2023-04-01T19:39:35.196Z,9.62
2023-04-01T19:42:42.616Z,9.73
2023-04-01T19:45:29.844Z,9.73
2023-04-01T19:48:03.153Z,9.68
2023-04-01T19:50:51.922Z,9.64
2023-04-01T19:53:28.857Z,9.58
2023-04-01T19:56:02.219Z,9.51
2023-04-01T19:58:57.427Z,9.48
2023-04-01T20:01:50.859Z,9.50
2023-04-01T20:04:43.630Z,9.46
2023-04-01T20:07:17.007Z,9.46
2023-04-01T20:10:20.846Z,9.38
2023-04-01T20:12:50.088Z,9.40
2023-04-01T20:15:34.748Z,9.44
2023-04-01T20:18:07.601Z,9.44
2023-04-01T20:20:35.994Z,9.58
2023-04-01T20:23:46.769Z,9.58
2023-04-01T20:26:16.061Z,9.58
2023-04-01T20:28:45.364Z,9.59
2023-04-01T20:31:16.482Z,9.62
2023-04-01T20:34:23.310Z,9.79
2023-04-01T20:37:10.940Z,9.79
2023-04-01T20:40:16.097Z,9.72
2023-04-01T20:43:12.312Z,9.75
2023-04-01T20:46:10.559Z,9.70
2023-04-01T20:48:44.124Z,9.57
2023-04-01T20:51:16.031Z,9.49
2023-04-01T20:54:08.979Z,9.49
2023-04-01T20:56:57.470Z,9.51
2023-04-01T20:59:48.811Z,9.56
2023-04-01T21:02:47.899Z,9.52
2023-04-01T21:05:36.723Z,9.50
2023-04-01T21:08:22.091Z,9.47
2023-04-01T21:11:17.185Z,9.53
2023-04-01T21:14:15.521Z,9.54
2023-04-01T21:16:57.952Z,9.53
2023-04-01T21:19:26.780Z,9.54
2023-04-01T21:22:21.337Z,9.46
2023-04-01T21:25:13.343Z,9.44
2023-04-01T21:27:48.720Z,9.39
2023-04-01T21:30:53.463Z,9.32
2023-04-01T21:33:46.410Z,9.30
2023-04-01T21:36:35.760Z,9.29
2023-04-01T21:39:40.747Z,9.22
2023-04-01T21:42:25.661Z,9.31
2023-04-01T21:45:28.516Z,9.31
2023-04-01T21:48:14.616Z,9.19
2023-04-01T21:51:00.028Z,9.12
2023-04-01T21:53:56.122Z,9.09
2023-04-01T21:56:58.760Z,9.02
2023-04-01T22:00:02.841Z,8.98
2023-04-01T22:03:26.256Z,9.03
2023-04-01T22:06:31.974Z,9.06
2023-04-01T22:09:20.078Z,9.13
2023-04-01T22:12:00.569Z,9.29
2023-04-01T22:14:44.817Z,9.39
2023-04-01T22:17:26.860Z,9.40
2023-04-01T22:20:10.485Z,9.52
2023-04-01T22:22:57.079Z,9.48
2023-04-01T22:25:50.209Z,9.44
2023-04-01T22:28:25.082Z,9.43
2023-04-01T22:30:54.069Z,9.46
2023-04-01T22:33:36.957Z,9.53
2023-04-01T22:36:26.912Z,9.63
2023-04-01T22:39:11.242Z,9.63
2023-04-01T22:41:47.536Z,9.58
2023-04-01T22:44:45.885Z,9.55
2023-04-01T22:47:50.832Z,9.49
2023-04-01T22:50:25.941Z,9.45
2023-04-01T22:53:04.183Z,9.54
2023-04-01T22:55:35.147Z,9.51
2023-04-01T22:58:09.844Z,9.49
2023-04-01T23:00:42.023Z,9.55
2023-04-01T23:03:31.801Z,9.70
2023-04-01T23:06:01.283Z,9.74
2023-04-01T23:08:37.564Z,9.85
2023-04-01T23:11:10.305Z,9.93
2023-04-01T23:13:43.460Z,9.98
2023-04-01T23:16:11.577Z,9.99
2023-04-01T23:18:51.341Z,10.11
2023-04-01T23:21:53.385Z,10.01
2023-04-01T23:24:34.585Z,9.99
2023-04-01T23:27:18.849Z,10.02
2023-04-01T23:29:46.390Z,10.10
2023-04-01T23:32:19.113Z,10.19
2023-04-01T23:34:51.966Z,10.12
2023-04-01T23:37:20.376Z,9.92
2023-04-01T23:39:50.749Z,9.80
2023-04-01T23:42:26.748Z,9.72
2023-04-01T23:44:57.136Z,9.65
2023-04-01T23:47:28.097Z,9.55
2023-04-01T23:49:58.972Z,9.53
2023-04-01T23:52:32.060Z,9.51
2023-04-01T23:55:04.313Z,9.45
2023-04-01T23:57:36.679Z,9.33
